createdAt,value
2022-12-11T00:00:12.014Z,99733.12
2022-12-11T00:02:44.820Z,99729.22
2022-12-11T00:05:18.468Z,99726.83
2022-12-11T00:07:51.601Z,99734.42
2022-12-11T00:10:24.608Z,99730.02
2022-12-11T00:12:57.391Z,99730.11
2022-12-11T00:15:30.673Z,99725.53
2022-12-11T00:18:03.492Z,99725.13
2022-12-11T00:20:36.843Z,99724.33
2022-12-11T00:23:11.128Z,99728.83
2022-12-11T00:25:46.214Z,99715.05
2022-12-11T00:28:22.199Z,99715.05
2022-12-11T00:30:55.368Z,99726.23
2022-12-11T00:33:29.940Z,99722.76
2022-12-11T00:36:02.705Z,99721.14
2022-12-11T00:38:35.537Z,99716.47
2022-12-11T00:41:09.130Z,99715.58
2022-12-11T00:43:42.657Z,99718.55
2022-12-11T00:46:15.424Z,99712.47
2022-12-11T00:48:50.222Z,99725.86
2022-12-11T00:51:22.872Z,99720.45
2022-12-11T00:53:55.611Z,99721.95
2022-12-11T00:56:28.388Z,99723.03
2022-12-11T00:59:01.541Z,99718.45
2022-12-11T01:01:34.545Z,99716.42
2022-12-11T01:04:07.660Z,99715.22
2022-12-11T01:06:41.607Z,99716.72
2022-12-11T01:09:31.991Z,99721.53
2022-12-11T01:12:05.376Z,99711.94
2022-12-11T01:14:38.411Z,99711.42
2022-12-11T01:17:11.521Z,99710.03
2022-12-11T01:19:44.301Z,99709.56
2022-12-11T01:22:16.974Z,99708.54
2022-12-11T01:24:50.023Z,99706.86
2022-12-11T01:27:23.023Z,99707.23
2022-12-11T01:29:56.202Z,99703.28
2022-12-11T01:32:30.022Z,99698.00
2022-12-11T01:35:05.726Z,99696.09
2022-12-11T01:37:38.606Z,99702.07
2022-12-11T01:40:15.014Z,99703.78
2022-12-11T01:42:48.356Z,99707.58
2022-12-11T01:45:39.780Z,99701.97
2022-12-11T01:48:17.294Z,99699.79
2022-12-11T01:51:02.708Z,99701.09
2022-12-11T01:53:44.945Z,99694.59
2022-12-11T01:56:18.281Z,99691.49
2022-12-11T01:58:55.576Z,99697.19
2022-12-11T02:01:35.787Z,99696.30
2022-12-11T02:04:11.248Z,99693.20
2022-12-11T02:06:47.167Z,99694.50
2022-12-11T02:09:23.912Z,99689.82
2022-12-11T02:12:28.877Z,99691.49
2022-12-11T02:15:21.477Z,99686.72
2022-12-11T02:18:28.636Z,99689.21
2022-12-11T02:21:21.336Z,99689.52
2022-12-11T02:24:16.737Z,99692.02
2022-12-11T02:27:06.336Z,99688.78
2022-12-11T02:30:04.328Z,99690.88
2022-12-11T02:32:47.433Z,99688.59
2022-12-11T02:35:29.780Z,99686.78
2022-12-11T02:38:06.978Z,99693.48
2022-12-11T02:40:42.265Z,99696.30
2022-12-11T02:43:16.926Z,99690.39
2022-12-11T02:45:50.712Z,99695.90
2022-12-11T02:48:25.397Z,99692.59
2022-12-11T02:51:00.187Z,99691.09
2022-12-11T02:53:36.158Z,99692.70
2022-12-11T02:56:16.739Z,99682.13
2022-12-11T02:58:58.287Z,99685.55
2022-12-11T03:01:29.343Z,99683.13
2022-12-11T03:04:02.081Z,99689.41
2022-12-11T03:06:49.724Z,99678.46
2022-12-11T03:09:22.917Z,99678.84
2022-12-11T03:11:55.708Z,99672.66
2022-12-11T03:14:28.449Z,99676.45
2022-12-11T03:17:17.623Z,99677.17
2022-12-11T03:20:10.259Z,99675.78
2022-12-11T03:23:02.438Z,99673.56
2022-12-11T03:25:44.381Z,99668.99
2022-12-11T03:28:33.464Z,99667.97
2022-12-11T03:31:11.286Z,99670.36
2022-12-11T03:33:46.855Z,99671.56
2022-12-11T03:36:23.805Z,99660.09
2022-12-11T03:39:09.335Z,99663.89
2022-12-11T03:41:42.453Z,99666.69
2022-12-11T03:44:16.734Z,99663.69
2022-12-11T03:46:50.078Z,99669.97
2022-12-11T03:49:29.265Z,99659.19
2022-12-11T03:52:03.012Z,99661.78
2022-12-11T03:54:37.220Z,99659.66
2022-12-11T03:57:12.314Z,99667.20
2022-12-11T03:59:45.131Z,99667.88
2022-12-11T04:02:18.083Z,99673.41
2022-12-11T04:04:51.012Z,99674.50
2022-12-11T04:07:24.314Z,99673.20
2022-12-11T04:09:57.737Z,99684.08
2022-12-11T04:12:30.877Z,99682.56
2022-12-11T04:15:03.975Z,99685.45
2022-12-11T04:17:56.567Z,99690.80
2022-12-11T04:20:47.663Z,99695.58
2022-12-11T04:23:39.100Z,99693.55
2022-12-11T04:26:18.555Z,99693.64
2022-12-11T04:28:52.255Z,99690.95
2022-12-11T04:31:25.769Z,99693.80
2022-12-11T04:33:58.563Z,99693.80
2022-12-11T04:36:31.603Z,99694.83
2022-12-11T04:39:06.358Z,99700.00
2022-12-11T04:41:39.323Z,99698.60
2022-12-11T04:44:12.330Z,99697.30
2022-12-11T04:46:45.496Z,99694.98
2022-12-11T04:49:18.790Z,99688.92
2022-12-11T04:51:51.415Z,99687.52
2022-12-11T04:54:25.722Z,99690.21
2022-12-11T04:56:59.064Z,99690.21
2022-12-11T04:59:32.944Z,99685.25
2022-12-11T05:02:06.272Z,99692.23
2022-12-11T05:04:39.536Z,99697.01
2022-12-11T05:07:13.118Z,99699.08
2022-12-11T05:09:46.313Z,99703.78
2022-12-11T05:12:19.297Z,99703.37
2022-12-11T05:14:55.526Z,99700.00
2022-12-11T05:17:28.494Z,99702.70
2022-12-11T05:20:01.307Z,99708.66
2022-12-11T05:22:34.335Z,99707.88
2022-12-11T05:25:09.117Z,99704.98
2022-12-11T05:27:42.312Z,99700.33
2022-12-11T05:30:15.486Z,99697.44
2022-12-11T05:32:48.217Z,99697.95
2022-12-11T05:35:21.067Z,99693.25
2022-12-11T05:37:54.153Z,99697.66
2022-12-11T05:40:27.213Z,99691.59
2022-12-11T05:43:00.431Z,99699.83
2022-12-11T05:45:33.642Z,99701.75
2022-12-11T05:48:07.419Z,99706.11
2022-12-11T05:50:40.462Z,99709.63
2022-12-11T05:53:13.329Z,99707.41
2022-12-11T05:55:46.283Z,99709.22
2022-12-11T05:58:19.613Z,99708.70
2022-12-11T06:00:52.277Z,99714.50
2022-12-11T06:03:25.707Z,99715.02
2022-12-11T06:05:58.889Z,99712.53
2022-12-11T06:08:32.787Z,99718.91
2022-12-11T06:11:07.103Z,99718.69
2022-12-11T06:13:40.951Z,99724.13
2022-12-11T06:16:14.638Z,99722.84
2022-12-11T06:18:48.481Z,99727.75
2022-12-11T06:21:27.459Z,99727.05
2022-12-11T06:24:03.490Z,99725.08
2022-12-11T06:26:36.379Z,99721.41
2022-12-11T06:29:12.961Z,99713.64
2022-12-11T06:31:43.702Z,99717.63
2022-12-11T06:34:16.929Z,99719.92
2022-12-11T06:36:49.559Z,99719.66
2022-12-11T06:39:22.645Z,99713.39
2022-12-11T06:41:55.534Z,99717.08
2022-12-11T06:44:28.567Z,99725.95
2022-12-11T06:47:01.633Z,99719.06
2022-12-11T06:49:34.981Z,99720.66
2022-12-11T06:52:09.968Z,99715.08
2022-12-11T06:54:43.411Z,99720.36
2022-12-11T06:57:16.657Z,99718.97
2022-12-11T06:59:49.686Z,99721.18
2022-12-11T07:02:23.275Z,99716.11
2022-12-11T07:04:56.375Z,99713.83
2022-12-11T07:07:29.693Z,99716.33
2022-12-11T07:10:07.962Z,99710.47
2022-12-11T07:12:37.946Z,99711.87
2022-12-11T07:15:12.283Z,99707.79
2022-12-11T07:17:45.609Z,99715.88
2022-12-11T07:20:19.837Z,99712.09
2022-12-11T07:22:53.091Z,99719.67
2022-12-11T07:25:26.160Z,99720.39
2022-12-11T07:27:59.046Z,99712.31
2022-12-11T07:30:32.129Z,99715.11
2022-12-11T07:33:06.060Z,99708.33
2022-12-11T07:35:39.184Z,99718.39
2022-12-11T07:38:12.275Z,99718.12
2022-12-11T07:40:45.109Z,99710.04
2022-12-11T07:43:17.906Z,99710.75
2022-12-11T07:45:51.229Z,99707.28
2022-12-11T07:48:24.194Z,99708.06
2022-12-11T07:50:57.369Z,99702.67
2022-12-11T07:53:30.192Z,99701.58
2022-12-11T07:56:03.189Z,99689.94
2022-12-11T07:58:37.197Z,99693.72
2022-12-11T08:01:16.618Z,99692.73
2022-12-11T08:03:50.910Z,99683.85
2022-12-11T08:06:30.148Z,99689.61
2022-12-11T08:09:05.444Z,99690.63
2022-12-11T08:11:38.733Z,99691.82
2022-12-11T08:14:11.675Z,99689.22
2022-12-11T08:16:45.149Z,99693.09
2022-12-11T08:19:18.438Z,99687.82
2022-12-11T08:21:51.283Z,99684.12
2022-12-11T08:24:24.036Z,99677.80
2022-12-11T08:26:57.133Z,99677.53
2022-12-11T08:29:30.104Z,99672.13
2022-12-11T08:32:06.352Z,99672.30
2022-12-11T08:34:37.662Z,99668.47
2022-12-11T08:37:10.699Z,99660.33
2022-12-11T08:39:45.335Z,99669.42
2022-12-11T08:42:18.178Z,99666.97
2022-12-11T08:44:52.060Z,99664.34
2022-12-11T08:47:27.770Z,99659.52
2022-12-11T08:50:00.619Z,99653.30
2022-12-11T08:52:37.092Z,99659.66
2022-12-11T08:55:10.833Z,99651.72
2022-12-11T08:57:43.868Z,99648.19
2022-12-11T09:00:18.827Z,99650.36
2022-12-11T09:02:51.769Z,99656.20
2022-12-11T09:05:24.518Z,99649.98
2022-12-11T09:07:57.422Z,99642.36
2022-12-11T09:10:30.407Z,99640.86
2022-12-11T09:13:04.164Z,99640.21
2022-12-11T09:15:39.821Z,99629.48
2022-12-11T09:18:12.686Z,99638.77
2022-12-11T09:20:45.561Z,99638.56
2022-12-11T09:23:18.558Z,99630.52
2022-12-11T09:25:51.733Z,99625.09
2022-12-11T09:28:25.722Z,99617.55
2022-12-11T09:30:58.565Z,99611.72
2022-12-11T09:33:31.601Z,99609.38
2022-12-11T09:36:05.711Z,99614.43
2022-12-11T09:38:39.381Z,99605.16
2022-12-11T09:41:25.457Z,99605.51
2022-12-11T09:44:42.909Z,99603.25
2022-12-11T09:47:33.632Z,99592.05
2022-12-11T09:50:12.153Z,99597.43
2022-12-11T09:53:15.179Z,99590.04
2022-12-11T09:55:58.465Z,99588.19
2022-12-11T09:58:58.489Z,99597.05
2022-12-11T10:01:39.797Z,99589.70
2022-12-11T10:04:20.756Z,99595.83
2022-12-11T10:07:17.189Z,99593.61
2022-12-11T10:10:20.969Z,99591.84
2022-12-11T10:13:32.460Z,99587.43
2022-12-11T10:16:29.921Z,99578.90
2022-12-11T10:19:03.939Z,99573.02
2022-12-11T10:21:41.556Z,99569.06
2022-12-11T10:27:29.256Z,99564.16
2022-12-11T10:30:16.174Z,99567.39
2022-12-11T10:33:24.977Z,99572.30
2022-12-11T10:35:59.367Z,99570.58
2022-12-11T10:38:35.862Z,99569.11
2022-12-11T10:41:15.808Z,99572.14
2022-12-11T10:43:52.189Z,99564.32
2022-12-11T10:46:28.524Z,99570.08
2022-12-11T10:49:02.908Z,99565.03
2022-12-11T10:51:38.682Z,99554.34
2022-12-11T10:54:19.425Z,99554.00
2022-12-11T10:56:52.462Z,99553.58
2022-12-11T10:59:35.972Z,99556.83
2022-12-11T11:02:24.483Z,99559.50
2022-12-11T11:05:01.230Z,99549.09
2022-12-11T11:07:35.120Z,99551.72
2022-12-11T11:10:16.343Z,99550.59
2022-12-11T11:12:53.749Z,99546.90
2022-12-11T11:15:31.792Z,99548.04
2022-12-11T11:18:12.702Z,99551.56
2022-12-11T11:20:49.174Z,99543.49
2022-12-11T11:23:23.582Z,99546.00
2022-12-11T11:25:57.540Z,99543.72
2022-12-11T11:28:46.611Z,99544.13
2022-12-11T11:31:21.173Z,99543.95
2022-12-11T11:34:04.501Z,99534.02
2022-12-11T11:36:38.937Z,99545.75
2022-12-11T11:39:21.596Z,99543.95
2022-12-11T11:42:13.393Z,99537.05
2022-12-11T11:45:03.519Z,99537.20
2022-12-11T11:47:43.353Z,99544.22
2022-12-11T11:50:30.124Z,99543.02
2022-12-11T11:53:35.121Z,99536.48
2022-12-11T11:56:36.556Z,99529.60
2022-12-11T11:59:25.937Z,99535.53
2022-12-11T12:02:00.925Z,99538.28
2022-12-11T12:04:37.692Z,99531.05
2022-12-11T12:07:52.594Z,99527.78
2022-12-11T12:10:58.692Z,99531.05
2022-12-11T12:13:53.743Z,99526.65
2022-12-11T12:16:55.899Z,99530.22
2022-12-11T12:19:19.567Z,99532.98
2022-12-11T12:21:55.217Z,99534.11
2022-12-11T12:24:48.256Z,99531.34
2022-12-11T12:27:51.682Z,99533.69
2022-12-11T12:30:17.393Z,99529.03
2022-12-11T12:33:33.471Z,99532.12
2022-12-11T12:36:25.963Z,99532.66
2022-12-11T12:39:42.801Z,99524.12
2022-12-11T12:42:49.325Z,99521.83
2022-12-11T12:46:06.331Z,99515.66
2022-12-11T12:48:40.122Z,99523.45
2022-12-11T12:51:16.339Z,99523.61
2022-12-11T12:54:01.693Z,99513.03
2022-12-11T12:56:36.537Z,99513.75
2022-12-11T12:59:24.872Z,99508.88
2022-12-11T13:02:01.363Z,99504.05
2022-12-11T13:04:55.877Z,99504.56
2022-12-11T13:07:23.352Z,99503.91
2022-12-11T13:10:24.698Z,99507.55
2022-12-11T13:12:58.315Z,99504.69
2022-12-11T13:15:40.956Z,99497.01
2022-12-11T13:18:35.347Z,99493.77
2022-12-11T13:21:36.006Z,99490.48
2022-12-11T13:24:25.832Z,99489.84
2022-12-11T13:27:00.740Z,99479.80
2022-12-11T13:29:44.200Z,99477.68
2022-12-11T13:32:25.120Z,99475.52
2022-12-11T13:35:00.565Z,99484.57
2022-12-11T13:37:42.637Z,99479.43
2022-12-11T13:40:22.384Z,99475.55
2022-12-11T13:43:01.183Z,99476.20
2022-12-11T13:45:55.965Z,99476.02
2022-12-11T13:48:49.362Z,99480.05
2022-12-11T13:51:26.195Z,99474.86
2022-12-11T13:54:18.749Z,99471.20
2022-12-11T13:57:01.322Z,99472.31
2022-12-11T13:59:39.106Z,99476.08
2022-12-11T14:02:25.419Z,99477.52
2022-12-11T14:05:08.736Z,99477.33
2022-12-11T14:07:46.582Z,99485.34
2022-12-11T14:10:29.347Z,99484.55
2022-12-11T14:13:05.660Z,99488.34
2022-12-11T14:15:39.873Z,99477.69
2022-12-11T14:18:23.088Z,99477.91
2022-12-11T14:21:01.349Z,99485.31
2022-12-11T14:23:37.730Z,99484.14
2022-12-11T14:26:27.717Z,99482.15
2022-12-11T14:29:01.361Z,99489.05
2022-12-11T14:31:38.422Z,99486.27
2022-12-11T14:34:26.065Z,99487.37
2022-12-11T14:37:00.329Z,99484.90
2022-12-11T14:39:39.957Z,99491.09
2022-12-11T14:42:28.383Z,99482.61
2022-12-11T14:45:24.092Z,99476.03
2022-12-11T14:47:57.835Z,99471.27
2022-12-11T14:50:38.365Z,99465.88
2022-12-11T14:53:15.984Z,99472.08
2022-12-11T14:55:50.666Z,99462.39
2022-12-11T14:58:29.791Z,99465.71
2022-12-11T15:01:06.651Z,99466.50
2022-12-11T15:03:43.111Z,99465.99
2022-12-11T15:06:33.121Z,99456.83
2022-12-11T15:09:41.066Z,99462.32
2022-12-11T15:12:20.566Z,99465.23
2022-12-11T15:15:02.422Z,99459.75
2022-12-11T15:17:37.759Z,99455.36
2022-12-11T15:20:14.823Z,99453.75
2022-12-11T15:22:47.985Z,99453.38
2022-12-11T15:25:29.779Z,99455.55
2022-12-11T15:28:03.073Z,99448.19
2022-12-11T15:30:37.372Z,99448.97
2022-12-11T15:33:20.037Z,99459.75
2022-12-11T15:36:08.162Z,99455.77
2022-12-11T15:38:42.476Z,99466.55
2022-12-11T15:41:20.347Z,99464.42
2022-12-11T15:43:58.988Z,99465.72
2022-12-11T15:46:31.850Z,99467.42
2022-12-11T15:49:07.894Z,99460.44
2022-12-11T15:51:43.139Z,99453.48
2022-12-11T15:54:15.544Z,99463.03
2022-12-11T15:56:48.311Z,99458.45
2022-12-11T15:59:21.796Z,99450.27
2022-12-11T16:01:55.178Z,99449.95
2022-12-11T16:04:27.900Z,99442.69
2022-12-11T16:07:03.498Z,99443.80
2022-12-11T16:09:38.052Z,99442.81
2022-12-11T16:12:12.186Z,99441.52
2022-12-11T16:14:46.789Z,99441.20
2022-12-11T16:17:20.146Z,99445.50
2022-12-11T16:19:55.071Z,99436.84
2022-12-11T16:22:28.030Z,99433.23
2022-12-11T16:25:00.848Z,99435.92
2022-12-11T16:27:34.680Z,99434.25
2022-12-11T16:30:10.386Z,99428.14
2022-12-11T16:32:43.708Z,99435.03
2022-12-11T16:35:17.716Z,99436.23
2022-12-11T16:37:57.425Z,99441.83
2022-12-11T16:40:30.305Z,99441.12
2022-12-11T16:43:04.099Z,99432.84
2022-12-11T16:45:36.884Z,99440.24
2022-12-11T16:48:10.121Z,99431.17
2022-12-11T16:50:43.118Z,99437.94
2022-12-11T16:53:17.826Z,99431.84
2022-12-11T16:55:50.828Z,99434.53
2022-12-11T16:58:24.629Z,99427.27
2022-12-11T17:00:58.991Z,99431.15
2022-12-11T17:03:33.433Z,99430.27
2022-12-11T17:06:07.878Z,99422.87
2022-12-11T17:08:44.138Z,99411.11
2022-12-11T17:11:21.225Z,99409.34
2022-12-11T17:13:58.964Z,99416.10
2022-12-11T17:16:33.060Z,99412.03
2022-12-11T17:19:07.791Z,99400.05
2022-12-11T17:21:40.781Z,99394.88
2022-12-11T17:24:13.811Z,99401.45
2022-12-11T17:26:46.766Z,99399.64
2022-12-11T17:29:20.240Z,99403.53
2022-12-11T17:31:53.060Z,99394.88
2022-12-11T17:34:25.974Z,99398.95
2022-12-11T17:36:58.874Z,99386.19
2022-12-11T17:39:32.324Z,99399.33
2022-12-11T17:42:05.966Z,99397.22
2022-12-11T17:44:40.133Z,99397.81
2022-12-11T17:47:13.246Z,99397.41
2022-12-11T17:49:46.310Z,99405.78
2022-12-11T17:52:19.248Z,99403.29
2022-12-11T17:54:53.514Z,99407.08
2022-12-11T17:57:26.332Z,99412.58
2022-12-11T17:59:59.194Z,99418.23
2022-12-11T18:02:33.851Z,99419.95
2022-12-11T18:05:07.169Z,99421.75
2022-12-11T18:07:40.555Z,99423.42
2022-12-11T18:10:13.498Z,99423.33
2022-12-11T18:12:47.287Z,99424.94
2022-12-11T18:15:21.235Z,99427.34
2022-12-11T18:17:53.925Z,99433.21
2022-12-11T18:20:27.596Z,99427.36
2022-12-11T18:23:02.255Z,99427.27
2022-12-11T18:25:36.365Z,99430.95
2022-12-11T18:28:09.307Z,99438.22
2022-12-11T18:30:42.354Z,99438.73
2022-12-11T18:33:15.564Z,99435.35
2022-12-11T18:35:50.678Z,99431.94
2022-12-11T18:38:24.255Z,99438.04
2022-12-11T18:40:57.516Z,99425.97
2022-12-11T18:43:30.375Z,99426.85
2022-12-11T18:46:09.687Z,99437.02
2022-12-11T18:48:44.372Z,99423.78
2022-12-11T18:51:18.979Z,99428.07
2022-12-11T18:53:51.797Z,99421.79
2022-12-11T18:56:24.675Z,99427.38
2022-12-11T18:58:57.671Z,99424.38
2022-12-11T19:01:33.544Z,99432.16
2022-12-11T19:04:10.710Z,99426.19
2022-12-11T19:06:41.484Z,99445.20
2022-12-11T19:09:14.634Z,99423.59
2022-12-11T19:11:47.978Z,99431.94
2022-12-11T19:14:21.249Z,99429.85
2022-12-11T19:16:54.647Z,99431.56
2022-12-11T19:19:27.380Z,99429.06
2022-12-11T19:22:00.918Z,99435.92
2022-12-11T19:24:33.938Z,99440.62
2022-12-11T19:27:13.082Z,99440.22
2022-12-11T19:29:41.606Z,99442.40
2022-12-11T19:32:14.946Z,99444.11
2022-12-11T19:34:48.004Z,99442.71
2022-12-11T19:37:21.018Z,99450.39
2022-12-11T19:39:54.054Z,99447.39
2022-12-11T19:42:29.516Z,99435.03
2022-12-11T19:45:04.505Z,99434.72
2022-12-11T19:47:37.986Z,99435.55
2022-12-11T19:50:11.182Z,99429.34
2022-12-11T19:52:46.377Z,99430.86
2022-12-11T19:55:19.901Z,99425.07
2022-12-11T19:57:53.437Z,99430.25
2022-12-11T20:00:26.327Z,99425.80
2022-12-11T20:02:59.908Z,99430.37
2022-12-11T20:05:33.271Z,99430.69
2022-12-11T20:08:42.432Z,99421.80
2022-12-11T20:10:41.708Z,99427.70
2022-12-11T20:13:15.575Z,99431.39
2022-12-11T20:15:48.648Z,99430.00
2022-12-11T20:18:21.586Z,99433.27
2022-12-11T20:20:55.051Z,99444.55
2022-12-11T20:23:28.582Z,99440.26
2022-12-11T20:26:03.562Z,99438.45
2022-12-11T20:28:36.789Z,99440.16
2022-12-11T20:31:19.779Z,99435.29
2022-12-11T20:33:52.226Z,99439.95
2022-12-11T20:36:26.704Z,99445.23
2022-12-11T20:38:59.626Z,99445.75
2022-12-11T20:41:32.859Z,99445.34
2022-12-11T20:44:06.573Z,99444.63
2022-12-11T20:46:41.166Z,99438.37
2022-12-11T20:49:14.205Z,99433.50
2022-12-11T20:51:47.218Z,99429.61
2022-12-11T20:54:20.360Z,99429.61
2022-12-11T20:56:53.468Z,99434.28
2022-12-11T20:59:27.035Z,99438.17
2022-12-11T21:02:00.498Z,99439.46
2022-12-11T21:04:34.946Z,99429.83
2022-12-11T21:07:09.405Z,99433.98
2022-12-11T21:09:42.802Z,99436.10
2022-12-11T21:12:16.266Z,99436.78
2022-12-11T21:14:49.069Z,99441.45
2022-12-11T21:17:22.074Z,99442.55
2022-12-11T21:19:54.881Z,99447.25
2022-12-11T21:22:27.983Z,99451.51
2022-12-11T21:25:00.981Z,99444.16
2022-12-11T21:27:34.071Z,99441.97
2022-12-11T21:30:08.211Z,99434.89
2022-12-11T21:32:42.464Z,99433.49
2022-12-11T21:35:15.212Z,99428.31
2022-12-11T21:37:48.849Z,99426.24
2022-12-11T21:40:22.692Z,99421.84
2022-12-11T21:42:55.531Z,99427.81
2022-12-11T21:45:59.835Z,99423.05
2022-12-11T21:48:03.667Z,99413.38
2022-12-11T21:50:38.972Z,99406.12
2022-12-11T21:53:12.188Z,99406.12
2022-12-11T21:55:45.716Z,99413.48
2022-12-11T21:58:18.813Z,99408.61
2022-12-11T22:00:51.711Z,99394.06
2022-12-11T22:03:24.839Z,99384.23
2022-12-11T22:05:57.794Z,99388.11
2022-12-11T22:08:30.623Z,99388.99
2022-12-11T22:11:03.623Z,99391.17
2022-12-11T22:13:37.015Z,99388.99
2022-12-11T22:16:10.440Z,99388.11
2022-12-11T22:18:43.878Z,99392.27
2022-12-11T22:21:17.873Z,99392.98
2022-12-11T22:23:50.806Z,99398.84
2022-12-11T22:26:27.499Z,99394.45
2022-12-11T22:29:00.601Z,99391.59
2022-12-11T22:31:33.723Z,99386.10
2022-12-11T22:34:06.775Z,99382.02
2022-12-11T22:36:39.992Z,99382.02
2022-12-11T22:39:12.999Z,99381.71
2022-12-11T22:41:45.931Z,99372.38
2022-12-11T22:44:21.965Z,99369.38
2022-12-11T22:46:54.907Z,99382.83
2022-12-11T22:49:27.846Z,99383.20
2022-12-11T22:52:01.618Z,99380.93
2022-12-11T22:54:35.662Z,99382.53
2022-12-11T22:57:08.807Z,99377.35
2022-12-11T22:59:41.934Z,99373.57
2022-12-11T23:02:15.739Z,99380.05
2022-12-11T23:04:48.375Z,99387.50
2022-12-11T23:07:21.271Z,99382.32
2022-12-11T23:09:54.637Z,99386.20
2022-12-11T23:12:28.818Z,99387.39
2022-12-11T23:15:01.652Z,99390.39
2022-12-11T23:17:35.110Z,99397.84
2022-12-11T23:20:09.651Z,99383.92
2022-12-11T23:22:42.648Z,99392.47
2022-12-11T23:25:16.565Z,99394.55
2022-12-11T23:27:50.529Z,99395.75
2022-12-11T23:30:24.332Z,99404.80
2022-12-11T23:32:57.463Z,99408.78
2022-12-11T23:35:30.400Z,99422.74
2022-12-11T23:38:03.547Z,99416.75
2022-12-11T23:40:37.095Z,99411.67
2022-12-11T23:43:09.769Z,99426.42
2022-12-11T23:45:47.284Z,99410.79
2022-12-11T23:48:21.460Z,99419.34
2022-12-11T23:50:56.016Z,99412.19
2022-12-11T23:53:29.812Z,99415.19
2022-12-11T23:56:08.474Z,99413.38
2022-12-11T23:58:41.872Z,99400.95
